KDLN/DLN METAR and TAF weather

Enter ICAO airport designator
Station Type Date Time Source
KDLN METAR 2022/07/01 01:53 UTC NOAA

KDLN 010153Z AUTO 06006KT 10SM CLR 23/M04 A3008 RMK AO2 SLP146 T02281039 TSNO


Station Type Date Time Source
KDLN Decoded METAR 2022/07/01 01:53 UTC NOAA

DILLON AIRPORT, MT, United States (KDLN) 45-15N 112-33W 1591M
Jun 30, 2022 - 09:53 PM EDT / 2022.07.01 0153 UTC
Wind: from the ENE (060 degrees) at 7 MPH (6 KT):0
Visibility: 10 mile(s):0
Sky conditions: clear
Temperature: 73.0 F (22.8 C)
Dew Point: 25.0 F (-3.9 C)
Relative Humidity: 16%
Pressure (altimeter): 30.08 in. Hg (1018 hPa)
ob: KDLN 010153Z AUTO 06006KT 10SM CLR 23/M04 A3008 RMK AO2 SLP146 T02281039 TSNO
cycle: 2

Station Type Date Time Source
KDLN TAF UTC NOAA

Error!

Example: see airport list